Time;durP1;ratioP1;P1;durP2;ratioP2;P2;SDS_P1;SDS_P2;PMS_P1;PMS_P2;Temp;Humidity;BMP_temperature;BMP_pressure;BME280_temperature;BME280_humidity;BME280_pressure;Samples;Min_cycle;Max_cycle;Signal;HPM_P1;HPM_P2
2023/03/10 00:01:29;;;;;;;;;2.50;1.00;;;;;11.71;100.00;98827.78;5078488;27;59719;-84
2023/03/10 00:03:56;;;;;;;;;1.00;1.00;;;;;11.73;100.00;98844.97;5061953;27;48483;-84
2023/03/10 00:06:23;;;;;;;;;5.25;1.00;;;;;11.71;100.00;98826.00;5095807;27;45399;-84
2023/03/10 00:08:49;;;;;;;;;1.00;1.00;;;;;11.69;100.00;98833.09;5095719;27;45381;-84
2023/03/10 00:11:15;;;;;;;;;7.50;2.00;;;;;11.71;100.00;98830.38;5099505;27;45318;-85
2023/03/10 00:13:41;;;;;;;;;4.00;0.75;;;;;11.71;100.00;98823.41;5081784;27;47114;-84
2023/03/10 00:16:18;;;;;;;;;3.00;0.50;;;;;11.70;100.00;98815.66;5081934;27;45419;-84
2023/03/10 00:18:45;;;;;;;;;9.75;1.00;;;;;11.69;100.00;98816.63;5099167;27;45467;-84
2023/03/10 00:21:14;;;;;;;;;4.00;1.00;;;;;11.69;100.00;98800.97;5117689;27;45467;-85
2023/03/10 00:23:39;;;;;;;;;8.00;2.25;;;;;11.71;100.00;98793.91;5117387;27;46262;-84
2023/03/10 00:26:05;;;;;;;;;7.00;2.00;;;;;11.69;100.00;98803.59;5098158;27;67687;-86
2023/03/10 00:28:30;;;;;;;;;5.50;1.00;;;;;11.69;100.00;98790.56;5097938;27;68457;-84
2023/03/10 00:31:00;;;;;;;;;3.25;0.75;;;;;11.72;100.00;98792.94;5097117;27;69483;-85
2023/03/10 00:33:26;;;;;;;;;6.75;2.25;;;;;11.72;100.00;98790.34;5098804;27;46746;-85
2023/03/10 00:36:02;;;;;;;;;5.50;2.00;;;;;11.75;100.00;98790.16;5098772;27;45408;-84
2023/03/10 00:38:27;;;;;;;;;3.00;2.00;;;;;11.77;100.00;98783.06;5098953;27;45330;-84
2023/03/10 00:41:00;;;;;;;;;9.25;1.00;;;;;11.81;100.00;98776.72;5117354;27;45295;-83
2023/03/10 00:43:26;;;;;;;;;3.00;1.00;;;;;11.81;100.00;98777.56;5098491;27;46352;-84
2023/03/10 00:45:52;;;;;;;;;2.75;1.00;;;;;11.83;100.00;98782.69;5098657;27;45481;-84
2023/03/10 00:48:17;;;;;;;;;4.75;1.00;;;;;11.80;100.00;98752.41;5117139;27;45526;-84
2023/03/10 00:50:42;;;;;;;;;5.00;1.00;;;;;11.85;100.00;98775.59;5117042;27;45274;-85
2023/03/10 00:53:08;;;;;;;;;5.50;1.25;;;;;11.86;100.00;98785.06;5116217;27;66921;-85
2023/03/10 00:55:33;;;;;;;;;3.25;1.00;;;;;11.78;100.00;98788.19;5097780;27;67687;-83
2023/03/10 00:57:58;;;;;;;;;4.50;2.00;;;;;11.73;100.00;98794.63;5115898;27;59247;-84
2023/03/10 01:00:24;;;;;;;;;2.75;2.00;;;;;11.62;100.00;98788.31;5081023;27;58970;-83
2023/03/10 01:02:51;;;;;;;;;7.50;1.00;;;;;11.51;100.00;98792.56;5098479;27;46856;-82
2023/03/10 01:05:17;;;;;;;;;0.00;0.00;;;;;11.43;100.00;98785.25;5116864;27;45674;-84
2023/03/10 01:07:42;;;;;;;;;1.00;1.00;;;;;11.37;100.00;98776.03;5095007;27;45456;-85
2023/03/10 01:10:08;;;;;;;;;4.75;1.50;;;;;11.33;100.00;98779.78;5094576;27;58018;-85
2023/03/10 01:12:33;;;;;;;;;1.50;1.00;;;;;11.27;100.00;98785.34;5095784;27;45348;-86
2023/03/10 01:14:59;;;;;;;;;2.25;1.00;;;;;11.22;100.00;98772.66;5094538;27;59188;-85
2023/03/10 01:17:24;;;;;;;;;2.00;1.00;;;;;11.20;100.00;98782.31;5094930;27;46474;-85
2023/03/10 01:19:49;;;;;;;;;2.00;0.50;;;;;11.14;100.00;98787.91;5096433;27;45400;-87
2023/03/10 01:22:15;;;;;;;;;1.75;0.00;;;;;11.12;100.00;98762.91;5094827;27;46007;-86
2023/03/10 01:24:40;;;;;;;;;1.00;1.00;;;;;11.07;100.00;98755.38;5094459;27;59080;-86
2023/03/10 01:27:06;;;;;;;;;2.75;0.25;;;;;11.06;100.00;98750.28;5094051;27;57100;-86
2023/03/10 01:29:31;;;;;;;;;1.00;1.00;;;;;10.99;100.00;98755.00;5095727;27;55778;-87
2023/03/10 01:31:56;;;;;;;;;0.00;0.00;;;;;10.94;100.00;98739.69;5094476;27;53297;-86
2023/03/10 01:34:22;;;;;;;;;0.50;0.00;;;;;10.88;100.00;98750.47;5096079;27;45283;-86
2023/03/10 01:36:47;;;;;;;;;1.50;0.00;;;;;10.88;100.00;98752.25;5095236;27;45791;-86
2023/03/10 01:39:12;;;;;;;;;0.00;0.00;;;;;10.83;100.00;98748.16;5096064;27;52327;-86
2023/03/10 01:41:39;;;;;;;;;0.00;0.00;;;;;10.81;100.00;98744.00;5097082;27;59744;-86
2023/03/10 01:44:12;;;;;;;;;0.00;0.00;;;;;10.78;100.00;98751.97;5098519;27;45690;-85
2023/03/10 01:46:57;;;;;;;;;1.00;0.00;;;;;10.68;100.00;98750.84;5115743;27;45415;-84
2023/03/10 01:49:39;;;;;;;;;1.75;0.00;;;;;10.74;100.00;98740.09;5099532;27;45399;-85
2023/03/10 01:52:09;;;;;;;;;5.00;1.00;;;;;10.76;100.00;98740.84;5098346;27;45406;-85
2023/03/10 01:54:48;;;;;;;;;0.50;0.00;;;;;10.72;100.00;98726.34;5114995;27;45970;-84
2023/03/10 01:57:14;;;;;;;;;2.00;0.00;;;;;10.73;100.00;98733.19;5098421;27;45461;-85
2023/03/10 01:59:40;;;;;;;;;1.50;0.00;;;;;10.79;100.00;98728.47;5115519;27;45482;-85
2023/03/10 02:02:05;;;;;;;;;1.00;1.00;;;;;10.79;100.00;98723.25;5081717;27;48139;-86
2023/03/10 02:04:40;;;;;;;;;2.00;1.50;;;;;10.87;100.00;98724.56;5099293;27;45370;-87
2023/03/10 02:07:06;;;;;;;;;5.50;1.00;;;;;10.90;100.00;98713.94;5098286;27;45444;-86
2023/03/10 02:09:33;;;;;;;;;5.00;0.75;;;;;10.87;100.00;98701.97;5114834;27;45285;-86
2023/03/10 02:11:59;;;;;;;;;2.25;0.00;;;;;10.96;100.00;98710.97;5080935;27;48028;-87
2023/03/10 02:14:24;;;;;;;;;4.50;1.00;;;;;10.95;100.00;98697.09;5099213;27;53927;-86
2023/03/10 02:16:50;;;;;;;;;3.00;0.25;;;;;11.00;100.00;98689.00;5098361;27;53925;-86
2023/03/10 02:19:48;;;;;;;;;5.00;1.00;;;;;11.01;100.00;98683.72;5099729;27;45573;-86
2023/03/10 02:22:16;;;;;;;;;0.00;0.00;;;;;11.00;100.00;98682.03;5019770;28;46714;-86
2023/03/10 02:24:51;;;;;;;;;0.25;0.25;;;;;11.06;100.00;98696.41;5020085;28;45784;-86
2023/03/10 02:27:46;;;;;;;;;2.00;0.25;;;;;11.07;100.00;98692.91;5036886;28;45443;-86
2023/03/10 02:30:13;;;;;;;;;5.50;1.00;;;;;11.10;100.00;98697.06;5033123;28;45472;-86
2023/03/10 02:32:41;;;;;;;;;2.00;1.00;;;;;11.13;100.00;98683.84;5019092;28;45679;-86
2023/03/10 02:35:07;;;;;;;;;7.50;0.00;;;;;11.15;100.00;98690.63;5019250;28;45430;-86
2023/03/10 02:37:34;;;;;;;;;2.75;1.00;;;;;11.17;100.00;98693.13;5035836;28;45506;-86
2023/03/10 02:40:00;;;;;;;;;0.25;0.00;;;;;11.15;100.00;98679.38;5019268;28;45405;-86
2023/03/10 02:42:33;;;;;;;;;6.00;2.00;;;;;11.14;100.00;98677.69;5019508;28;46672;-87
2023/03/10 02:45:02;;;;;;;;;1.00;0.75;;;;;11.17;100.00;98695.75;5020118;28;45548;-85
2023/03/10 02:47:28;;;;;;;;;0.75;0.75;;;;;11.15;100.00;98672.41;5019462;28;45407;-87
2023/03/10 02:49:53;;;;;;;;;1.25;1.00;;;;;11.19;100.00;98673.03;5018311;28;45405;-85
2023/03/10 02:52:52;;;;;;;;;0.75;0.25;;;;;11.15;100.00;98661.16;5018061;28;73781;-87
2023/03/10 02:55:18;;;;;;;;;1.00;1.00;;;;;11.16;100.00;98655.00;5013968;28;45669;-87
2023/03/10 02:57:43;;;;;;;;;1.50;0.00;;;;;11.20;100.00;98659.94;4998397;28;55717;-86
2023/03/10 03:00:10;;;;;;;;;1.75;0.25;;;;;11.15;100.00;98661.97;5086313;27;53937;-87
2023/03/10 03:02:41;;;;;;;;;5.75;0.00;;;;;11.19;100.00;98654.81;5081500;27;46454;-86
2023/03/10 03:05:07;;;;;;;;;0.50;0.00;;;;;11.22;100.00;98662.44;5098665;27;45460;-86
2023/03/10 03:07:32;;;;;;;;;0.50;0.00;;;;;11.16;100.00;98655.84;5079702;27;45385;-86
2023/03/10 03:09:57;;;;;;;;;1.00;0.25;;;;;11.18;100.00;98656.59;5062911;27;45982;-83
2023/03/10 03:12:23;;;;;;;;;1.00;0.00;;;;;11.14;100.00;98644.69;5097999;27;53566;-86
2023/03/10 03:14:48;;;;;;;;;1.00;0.00;;;;;11.14;100.00;98644.69;5079187;27;67510;-86
2023/03/10 03:17:13;;;;;;;;;0.00;0.00;;;;;11.11;100.00;98636.25;5080202;27;45380;-86
2023/03/10 03:19:39;;;;;;;;;0.00;0.00;;;;;11.09;100.00;98638.97;5079644;27;61652;-87
2023/03/10 03:22:04;;;;;;;;;0.00;0.00;;;;;11.09;100.00;98638.09;5081075;27;48469;-87
2023/03/10 03:24:32;;;;;;;;;0.25;0.00;;;;;11.08;100.00;98660.72;5080346;27;53447;-87
2023/03/10 03:26:57;;;;;;;;;0.00;0.00;;;;;11.02;100.00;98641.09;5099141;27;45451;-87
2023/03/10 03:29:23;;;;;;;;;1.00;0.00;;;;;11.06;100.00;98651.34;5080897;27;45350;-86
2023/03/10 03:31:49;;;;;;;;;1.25;0.00;;;;;11.03;100.00;98654.94;5081048;27;45352;-86
2023/03/10 03:34:14;;;;;;;;;0.75;0.00;;;;;11.06;100.00;98656.53;5079796;27;45451;-86
2023/03/10 03:36:40;;;;;;;;;0.00;0.00;;;;;11.04;100.00;98665.28;5096468;27;45378;-86
2023/03/10 03:39:06;;;;;;;;;0.00;0.00;;;;;11.00;100.00;98645.56;5097240;27;45440;-85
2023/03/10 03:41:32;;;;;;;;;0.75;0.75;;;;;11.00;100.00;98666.41;5098614;27;45435;-87
2023/03/10 03:43:57;;;;;;;;;0.00;0.00;;;;;10.91;100.00;98653.97;5080038;27;45334;-86
2023/03/10 03:46:23;;;;;;;;;0.25;0.25;;;;;10.82;100.00;98663.19;5080045;27;45353;-85
2023/03/10 03:48:50;;;;;;;;;0.75;0.00;;;;;10.88;100.00;98680.19;5098833;27;45283;-86
2023/03/10 03:51:18;;;;;;;;;0.00;0.00;;;;;10.87;100.00;98681.13;5080694;27;45400;-85
2023/03/10 03:53:46;;;;;;;;;7.25;0.00;;;;;10.86;100.00;98674.25;5110063;27;45592;-87
2023/03/10 03:56:11;;;;;;;;;1.00;1.00;;;;;10.77;100.00;98670.47;5118543;27;45357;-87
2023/03/10 03:58:36;;;;;;;;;0.50;0.00;;;;;10.72;100.00;98669.91;5099805;27;49947;-87
2023/03/10 04:01:02;;;;;;;;;0.00;0.00;;;;;10.65;100.00;98660.81;5099211;27;64598;-87
2023/03/10 04:03:27;;;;;;;;;3.25;0.75;;;;;10.63;100.00;98662.69;5119337;27;45356;-87
2023/03/10 04:05:52;;;;;;;;;3.00;1.00;;;;;10.67;100.00;98663.34;5099046;27;52517;-87
2023/03/10 04:08:18;;;;;;;;;0.00;0.00;;;;;10.60;100.00;98668.06;5097777;27;45412;-85
2023/03/10 04:10:50;;;;;;;;;0.00;0.00;;;;;10.63;100.00;98673.91;5079323;27;60883;-87
2023/03/10 04:13:15;;;;;;;;;2.00;0.50;;;;;10.55;100.00;98652.75;5098347;27;45301;-87
2023/03/10 04:15:40;;;;;;;;;2.25;0.25;;;;;10.64;100.00;98661.75;5080076;27;45306;-85
2023/03/10 04:18:09;;;;;;;;;0.75;0.75;;;;;10.60;100.00;98665.47;5079176;27;45468;-84
2023/03/10 04:20:35;;;;;;;;;3.75;0.00;;;;;10.56;100.00;98651.81;5096589;27;46056;-86
2023/03/10 04:23:00;;;;;;;;;1.00;0.00;;;;;10.65;100.00;98668.63;5078958;27;45489;-86
2023/03/10 04:25:29;;;;;;;;;3.00;1.00;;;;;10.63;100.00;98663.50;5062304;27;45379;-87
2023/03/10 04:28:07;;;;;;;;;;;;;;;;;;;;;
2023/03/10 04:30:33;;;;;;;;;0.50;0.25;;;;;10.56;100.00;98646.63;5075948;27;75501;-87
2023/03/10 04:32:59;;;;;;;;;3.00;1.00;;;;;10.63;100.00;98649.69;5097041;27;48435;-88
2023/03/10 04:35:25;;;;;;;;;7.50;0.75;;;;;10.60;100.00;98639.44;5079364;27;45406;-87
2023/03/10 04:37:54;;;;;;;;;6.00;0.00;;;;;10.59;100.00;98637.81;5078792;27;45327;-87
2023/03/10 04:40:20;;;;;;;;;2.00;0.50;;;;;10.60;100.00;98639.44;5078539;27;48270;-87
2023/03/10 04:42:53;;;;;;;;;5.25;1.00;;;;;10.58;100.00;98636.94;5097260;27;45458;-88
2023/03/10 04:45:20;;;;;;;;;0.75;0.00;;;;;10.61;100.00;98644.56;5079822;27;45367;-87
2023/03/10 04:47:56;;;;;;;;;;;;;;;;;;;;;
2023/03/10 04:50:44;;;;;;;;;1.75;0.00;;;;;10.61;100.00;98656.75;5076930;27;76371;-87
2023/03/10 04:53:09;;;;;;;;;0.00;0.00;;;;;10.49;100.00;98642.72;5086018;27;45347;-87
2023/03/10 04:55:37;;;;;;;;;1.00;0.00;;;;;10.45;100.00;98651.66;5099810;27;45496;-87
2023/03/10 04:58:02;;;;;;;;;2.00;0.00;;;;;10.40;100.00;98677.09;5097589;27;45414;-86
2023/03/10 05:00:35;;;;;;;;;0.00;0.00;;;;;10.45;100.00;98680.25;5117206;27;45398;-87
2023/03/10 05:03:08;;;;;;;;;2.75;0.50;;;;;10.34;100.00;98667.06;5082539;27;45621;-87
2023/03/10 05:05:36;;;;;;;;;0.50;0.00;;;;;10.38;100.00;98669.41;5116346;27;45475;-87
2023/03/10 05:08:01;;;;;;;;;0.00;0.00;;;;;10.35;100.00;98673.97;5115993;27;45491;-87
2023/03/10 05:10:26;;;;;;;;;0.00;0.00;;;;;10.33;100.00;98658.44;5098428;27;47050;-87
2023/03/10 05:12:57;;;;;;;;;0.00;0.00;;;;;10.37;100.00;98674.69;5098603;27;54046;-87
2023/03/10 05:15:33;;;;;;;;;1.00;0.00;;;;;10.31;100.00;98668.09;5117166;27;45305;-87
2023/03/10 05:17:58;;;;;;;;;1.00;0.00;;;;;10.28;100.00;98661.28;5120445;27;45463;-87
2023/03/10 05:20:24;;;;;;;;;1.00;0.00;;;;;10.35;100.00;98666.16;5121700;27;45498;-87
2023/03/10 05:22:49;;;;;;;;;1.00;0.00;;;;;10.30;100.00;98660.38;5103452;27;45532;-84
2023/03/10 05:25:14;;;;;;;;;0.00;0.00;;;;;10.30;100.00;98674.19;5103975;27;45411;-87
2023/03/10 05:27:43;;;;;;;;;2.50;0.00;;;;;10.34;100.00;98680.06;5105176;27;45369;-88
2023/03/10 05:30:10;;;;;;;;;0.00;0.00;;;;;10.31;100.00;98686.31;5104362;27;45468;-88
2023/03/10 05:32:36;;;;;;;;;1.00;0.00;;;;;10.28;100.00;98699.47;5122281;27;45368;-85
2023/03/10 05:35:03;;;;;;;;;2.00;0.50;;;;;10.32;100.00;98687.13;5121958;27;45376;-87
2023/03/10 05:37:40;;;;;;;;;;;;;;;;;;;;;
2023/03/10 05:40:14;;;;;;;;;0.00;0.00;;;;;10.20;100.00;98689.53;5117097;27;75422;-87
2023/03/10 05:42:41;;;;;;;;;1.00;0.00;;;;;10.19;100.00;98697.41;5104853;27;45674;-88
2023/03/10 05:45:10;;;;;;;;;1.00;0.00;;;;;10.13;100.00;98693.41;5122848;27;45376;-87
2023/03/10 05:47:42;;;;;;;;;0.00;0.00;;;;;10.05;100.00;98687.84;5084944;27;45299;-87
2023/03/10 05:50:13;;;;;;;;;0.00;0.00;;;;;9.89;100.00;98662.75;5103091;27;46175;-87
2023/03/10 05:52:46;;;;;;;;;0.00;0.00;;;;;10.00;100.00;98692.47;5100747;27;45766;-87
2023/03/10 05:55:18;;;;;;;;;0.25;0.00;;;;;9.91;100.00;98674.81;5102093;27;45417;-87
2023/03/10 05:57:46;;;;;;;;;1.50;0.00;;;;;9.84;100.00;98667.41;5098173;27;45262;-87
2023/03/10 06:00:14;;;;;;;;;2.50;0.00;;;;;9.89;100.00;98675.72;5099198;27;47079;-87
2023/03/10 06:02:42;;;;;;;;;0.00;0.00;;;;;9.80;100.00;98683.25;5081204;27;46195;-89
2023/03/10 06:05:12;;;;;;;;;0.00;0.00;;;;;9.86;100.00;98696.72;5099361;27;45407;-85
2023/03/10 06:07:38;;;;;;;;;0.00;0.00;;;;;9.85;100.00;98710.63;5091622;27;45479;-85
2023/03/10 06:10:04;;;;;;;;;1.00;0.00;;;;;9.75;100.00;98691.31;5094469;27;64090;-86
2023/03/10 06:12:35;;;;;;;;;0.00;0.00;;;;;9.73;100.00;98700.09;5060938;28;45377;-87
2023/03/10 06:15:01;;;;;;;;;0.00;0.00;;;;;9.69;100.00;98704.66;5079924;27;45540;-88
2023/03/10 06:17:26;;;;;;;;;0.00;0.00;;;;;9.77;100.00;98718.06;5077615;27;50942;-87
2023/03/10 06:20:01;;;;;;;;;0.00;0.00;;;;;9.75;100.00;98719.91;5077608;27;46450;-90
2023/03/10 06:22:26;;;;;;;;;0.00;0.00;;;;;9.65;100.00;98714.38;5077919;27;45808;-88
2023/03/10 06:24:52;;;;;;;;;0.00;0.00;;;;;9.71;100.00;98725.34;5060883;28;45441;-86
2023/03/10 06:27:19;;;;;;;;;0.00;0.00;;;;;9.68;100.00;98731.56;5060048;28;45477;-86
2023/03/10 06:29:48;;;;;;;;;0.00;0.00;;;;;9.66;100.00;98731.66;5094587;27;46245;-86
2023/03/10 06:32:13;;;;;;;;;0.00;0.00;;;;;9.64;100.00;98730.91;5078226;27;45282;-86
2023/03/10 06:34:41;;;;;;;;;0.00;0.00;;;;;9.68;100.00;98753.19;5077408;27;45314;-87
2023/03/10 06:37:06;;;;;;;;;0.50;0.00;;;;;9.65;100.00;98749.91;5077366;27;45418;-86
2023/03/10 06:39:32;;;;;;;;;0.00;0.00;;;;;9.62;100.00;98743.16;5078465;28;46391;-87
2023/03/10 06:41:57;;;;;;;;;0.00;0.00;;;;;9.68;100.00;98760.97;5078343;28;45451;-87
2023/03/10 06:44:22;;;;;;;;;0.00;0.00;;;;;9.71;100.00;98759.13;5093837;27;50007;-88
2023/03/10 06:46:50;;;;;;;;;0.00;0.00;;;;;9.72;100.00;98758.22;5077219;28;45337;-88
2023/03/10 06:49:15;;;;;;;;;0.00;0.00;;;;;9.71;100.00;98785.09;5078269;27;47407;-86
2023/03/10 06:51:43;;;;;;;;;0.00;0.00;;;;;9.69;100.00;98761.81;5077902;27;61437;-87
2023/03/10 06:54:11;;;;;;;;;0.00;0.00;;;;;9.76;100.00;98773.53;5092644;27;51887;-88
2023/03/10 06:56:36;;;;;;;;;0.00;0.00;;;;;9.86;100.00;98786.81;5101126;27;45488;-87
2023/03/10 06:59:02;;;;;;;;;0.00;0.00;;;;;9.81;100.00;98775.88;5074014;27;47317;-95
2023/03/10 07:01:30;;;;;;;;;0.00;0.00;;;;;9.87;100.00;98786.75;5099164;27;46049;-95
2023/03/10 07:03:56;;;;;;;;;0.00;0.00;;;;;9.93;100.00;98800.31;5082036;27;45394;-92
2023/03/10 07:06:32;;;;;;;;;0.00;0.00;;;;;9.91;100.00;98823.78;5102636;27;45221;-86
2023/03/10 07:09:04;;;;;;;;;0.00;0.00;;;;;9.81;100.00;98794.91;5101765;27;47164;-91
2023/03/10 07:11:30;;;;;;;;;0.00;0.00;;;;;9.90;100.00;98811.72;5083442;27;45455;-89
2023/03/10 07:13:57;;;;;;;;;0.00;0.00;;;;;9.86;100.00;98815.41;5087675;27;45308;-95
2023/03/10 07:16:22;;;;;;;;;0.00;0.00;;;;;9.85;100.00;98826.75;5101408;27;45345;-89
2023/03/10 07:18:48;;;;;;;;;0.00;0.00;;;;;9.90;100.00;98848.13;5065489;27;48317;-92
2023/03/10 07:21:19;;;;;;;;;0.00;0.00;;;;;9.90;100.00;98845.53;5084842;27;45478;-96
2023/03/10 07:23:45;;;;;;;;;0.00;0.00;;;;;9.95;100.00;98850.44;5101824;27;45439;-88
2023/03/10 07:26:13;;;;;;;;;0.00;0.00;;;;;9.95;100.00;98876.44;5118126;27;45349;-86
2023/03/10 07:28:38;;;;;;;;;0.00;0.00;;;;;9.94;100.00;98866.97;5120992;27;46191;-91
2023/03/10 07:31:10;;;;;;;;;0.00;0.00;;;;;9.97;100.00;98867.63;5103640;27;45475;-91
2023/03/10 07:33:35;;;;;;;;;1.00;0.00;;;;;10.03;100.00;98882.88;5098649;27;45345;-93
2023/03/10 07:36:24;;;;;;;;;0.00;0.00;;;;;10.00;100.00;98884.81;5098125;27;45359;-91
2023/03/10 07:38:49;;;;;;;;;0.00;0.00;;;;;10.08;100.00;98875.66;5077499;27;47661;-92
2023/03/10 07:41:25;;;;;;;;;1.00;0.00;;;;;10.16;100.00;98885.63;5068626;27;45494;-92
2023/03/10 07:44:09;;;;;;;;;0.00;0.00;;;;;10.16;100.00;98908.16;5085622;27;45329;-93
2023/03/10 07:46:37;;;;;;;;;0.00;0.00;;;;;10.32;100.00;98916.81;5102155;27;45338;-88
2023/03/10 07:49:03;;;;;;;;;0.00;0.00;;;;;10.34;100.00;98960.94;5080560;27;47282;-85
2023/03/10 07:51:31;;;;;;;;;0.00;0.00;;;;;10.37;100.00;98961.63;5116309;27;45557;-86
2023/03/10 07:53:57;;;;;;;;;0.00;0.00;;;;;10.42;100.00;98975.22;5110080;27;45279;-88
2023/03/10 07:56:25;;;;;;;;;0.00;0.00;;;;;10.39;100.00;98992.75;5099754;27;45587;-85
2023/03/10 07:58:50;;;;;;;;;0.00;0.00;;;;;10.41;100.00;98967.47;5073065;28;47111;-87
2023/03/10 08:01:29;;;;;;;;;;;;;;;;;;;;;
2023/03/10 08:03:57;;;;;;;;;0.00;0.00;;;;;10.55;100.00;99016.97;5071685;28;68665;-88
2023/03/10 08:06:25;;;;;;;;;0.75;0.00;;;;;10.41;100.00;98989.13;5076912;28;50560;-87
2023/03/10 08:08:52;;;;;;;;;0.00;0.00;;;;;10.52;100.00;99017.13;5073762;28;47965;-90
2023/03/10 08:11:20;;;;;;;;;1.00;0.00;;;;;10.39;100.00;99016.97;5075004;28;45709;-89
2023/03/10 08:13:48;;;;;;;;;0.00;0.00;;;;;10.40;100.00;99039.47;5077022;27;45524;-90
2023/03/10 08:16:15;;;;;;;;;0.00;0.00;;;;;10.37;100.00;99029.25;5077219;27;45861;-90
2023/03/10 08:18:43;;;;;;;;;0.50;0.00;;;;;10.43;100.00;99093.91;5077486;27;46363;-88
2023/03/10 08:21:09;;;;;;;;;0.00;0.00;;;;;10.46;100.00;99066.91;5076281;27;45764;-88
2023/03/10 08:23:35;;;;;;;;;0.00;0.00;;;;;10.46;100.00;99088.56;5075767;28;45395;-86
2023/03/10 08:26:05;;;;;;;;;0.00;0.00;;;;;10.50;100.00;99091.00;5066556;27;45493;-89
2023/03/10 08:28:36;;;;;;;;;0.00;0.00;;;;;10.44;100.00;99094.78;5077220;27;45383;-90
2023/03/10 08:31:14;;;;;;;;;0.00;0.00;;;;;10.45;100.00;99104.25;5092261;27;45872;-88
2023/03/10 08:33:39;;;;;;;;;0.00;0.00;;;;;10.44;100.00;99119.03;5059199;28;45347;-91
2023/03/10 08:36:10;;;;;;;;;0.00;0.00;;;;;10.41;100.00;99113.97;5076313;27;45160;-89
2023/03/10 08:38:40;;;;;;;;;0.00;0.00;;;;;10.44;100.00;99119.03;5092802;27;47443;-90
2023/03/10 08:41:11;;;;;;;;;0.00;0.00;;;;;10.49;100.00;99133.53;5076303;27;46154;-90
2023/03/10 08:43:55;;;;;;;;;0.00;0.00;;;;;10.30;100.00;99126.69;5077335;27;45278;-90
2023/03/10 08:46:35;;;;;;;;;;;;;;;;;;;;;
2023/03/10 08:49:01;;;;;;;;;0.00;0.00;;;;;9.92;100.00;99163.34;5071559;28;75425;-89
2023/03/10 08:51:27;;;;;;;;;0.00;0.00;;;;;9.94;100.00;99152.88;5051461;28;59168;-86
2023/03/10 08:53:52;;;;;;;;;0.00;0.00;;;;;9.68;100.00;99161.06;5074791;28;45416;-86
2023/03/10 08:56:24;;;;;;;;;0.00;0.00;;;;;9.66;100.00;99175.06;5073027;28;45527;-87
2023/03/10 08:58:59;;;;;;;;;;;;;;;;;;;;;
2023/03/10 09:01:35;;;;;;;;;0.00;0.00;;;;;9.63;100.00;99159.63;5053097;28;72907;-87
2023/03/10 09:04:09;;;;;;;;;0.00;0.00;;;;;9.61;100.00;99170.09;5058644;28;45469;-88
2023/03/10 09:06:35;;;;;;;;;0.00;0.00;;;;;9.63;100.00;99206.38;5064982;28;45546;-86
2023/03/10 09:09:02;;;;;;;;;1.00;0.00;;;;;9.58;100.00;99210.97;5061388;28;46663;-89
2023/03/10 09:11:39;;;;;;;;;0.75;0.00;;;;;9.60;100.00;99196.13;5060610;28;45697;-88
2023/03/10 09:14:10;;;;;;;;;0.00;0.00;;;;;9.66;100.00;99196.69;5091842;27;45495;-88
2023/03/10 09:16:38;;;;;;;;;1.00;0.00;;;;;9.74;100.00;99224.88;5092061;27;45571;-86
2023/03/10 09:19:03;;;;;;;;;1.00;0.00;;;;;9.80;100.00;99239.31;5063429;28;45479;-87
2023/03/10 09:21:30;;;;;;;;;0.75;0.00;;;;;9.78;100.00;99261.94;5061854;28;45339;-86
2023/03/10 09:23:55;;;;;;;;;4.00;0.50;;;;;9.62;100.00;99262.72;5068501;28;45559;-88
2023/03/10 09:26:23;;;;;;;;;1.75;0.00;;;;;9.49;100.00;99261.63;5075368;27;45333;-88
2023/03/10 09:28:51;;;;;;;;;0.00;0.00;;;;;9.43;100.00;99254.94;5058502;27;45427;-84
2023/03/10 09:31:30;;;;;;;;;2.25;0.00;;;;;9.47;100.00;99271.22;5070946;28;45409;-88
2023/03/10 09:33:56;;;;;;;;;0.00;0.00;;;;;9.56;100.00;99277.75;5057917;28;45449;-89
2023/03/10 09:36:31;;;;;;;;;;;;;;;;;;;;;
2023/03/10 09:38:57;;;;;;;;;0.00;0.00;;;;;9.62;100.00;99319.00;5057354;28;76158;-86
2023/03/10 09:41:47;;;;;;;;;1.25;1.00;;;;;9.67;100.00;99327.41;5075332;27;45384;-90
2023/03/10 09:44:52;;;;;;;;;0.00;0.00;;;;;9.54;100.00;99329.75;5074229;28;45543;-90
2023/03/10 09:47:24;;;;;;;;;1.75;0.00;;;;;9.45;100.00;99340.56;5068230;27;45413;-88
2023/03/10 09:50:22;;;;;;;;;0.00;0.00;;;;;9.39;100.00;99364.25;5090194;27;45373;-87
2023/03/10 09:53:26;;;;;;;;;0.00;0.00;;;;;9.34;100.00;99361.00;5038112;28;45908;-87
2023/03/10 09:55:54;;;;;;;;;0.00;0.00;;;;;9.33;100.00;99365.38;5035530;28;45508;-91
2023/03/10 09:58:38;;;;;;;;;0.00;0.00;;;;;9.36;100.00;99378.22;5065378;28;45432;-89
2023/03/10 10:01:04;;;;;;;;;0.00;0.00;;;;;9.35;100.00;99401.66;5067306;28;45512;-85
2023/03/10 10:03:33;;;;;;;;;0.25;0.00;;;;;9.39;100.00;99404.03;5055963;28;45516;-87
2023/03/10 10:05:59;;;;;;;;;0.00;0.00;;;;;9.48;100.00;99410.56;5074489;27;45485;-88
2023/03/10 10:08:28;;;;;;;;;0.00;0.00;;;;;9.47;100.00;99414.06;5062329;28;45497;-86
2023/03/10 10:10:57;;;;;;;;;1.00;0.00;;;;;9.47;100.00;99440.03;5053568;28;47047;-86
2023/03/10 10:13:24;;;;;;;;;0.50;0.50;;;;;9.41;100.00;99416.97;5070740;27;45609;-86
2023/03/10 10:15:59;;;;;;;;;0.00;0.00;;;;;9.48;100.00;99439.16;5057030;28;45449;-87
2023/03/10 10:18:59;;;;;;;;;2.00;0.00;;;;;9.36;100.00;99448.34;5054861;28;45710;-87
2023/03/10 10:21:47;;;;;;;;;2.00;0.00;;;;;9.39;100.00;99448.19;5042516;28;47213;-87
2023/03/10 10:24:13;;;;;;;;;0.00;0.00;;;;;9.56;100.00;99457.81;5061899;28;45360;-86
2023/03/10 10:26:38;;;;;;;;;0.00;0.00;;;;;9.49;100.00;99482.41;5072008;28;58606;-85
2023/03/10 10:29:18;;;;;;;;;0.50;0.00;;;;;9.66;100.00;99494.66;5075889;28;45514;-84
2023/03/10 10:32:04;;;;;;;;;1.00;0.75;;;;;9.47;100.00;99498.06;5075967;28;45419;-87
2023/03/10 10:34:31;;;;;;;;;1.50;0.00;;;;;9.45;100.00;99492.09;5077964;27;45412;-85
2023/03/10 10:37:07;;;;;;;;;2.00;0.00;;;;;9.48;100.00;99484.13;5078156;27;45317;-90
2023/03/10 10:39:37;;;;;;;;;1.00;0.00;;;;;9.62;100.00;99493.06;5076998;27;45216;-86
2023/03/10 10:42:25;;;;;;;;;0.00;0.00;;;;;9.80;100.00;99497.44;5093690;27;46374;-87
2023/03/10 10:45:20;;;;;;;;;2.25;0.00;;;;;10.07;100.00;99499.69;5077001;28;45879;-87
2023/03/10 10:48:01;;;;;;;;;;;;;;;;;;;;;
2023/03/10 10:50:29;;;;;;;;;0.00;0.00;;;;;10.38;100.00;99519.94;5076736;28;70578;-87
2023/03/10 10:53:15;;;;;;;;;0.00;0.00;;;;;10.43;100.00;99520.53;5092265;27;45522;-86
2023/03/10 10:55:42;;;;;;;;;0.00;0.00;;;;;10.41;100.00;99504.16;5075001;28;45891;-86
2023/03/10 10:58:27;;;;;;;;;0.25;0.00;;;;;10.09;100.00;99568.06;5076743;27;45458;-83
2023/03/10 11:00:55;;;;;;;;;0.00;0.00;;;;;9.78;100.00;99561.63;5077332;27;45503;-84
2023/03/10 11:03:28;;;;;;;;;1.00;1.00;;;;;9.87;100.00;99576.00;5076193;28;45325;-86
2023/03/10 11:05:54;;;;;;;;;1.00;0.00;;;;;10.00;100.00;99584.91;5061768;28;45548;-87
2023/03/10 11:08:26;;;;;;;;;0.75;0.00;;;;;10.21;100.00;99587.47;5058977;28;45430;-84
2023/03/10 11:11:03;;;;;;;;;0.75;0.75;;;;;10.43;100.00;99571.72;5076446;27;45350;-87
2023/03/10 11:13:38;;;;;;;;;6.00;0.00;;;;;10.60;100.00;99609.97;5075007;27;46757;-86
2023/03/10 11:16:41;;;;;;;;;0.00;0.00;;;;;10.68;100.00;99600.06;5076168;28;45727;-84
2023/03/10 11:19:45;;;;;;;;;3.50;0.00;;;;;10.80;98.86;99632.47;5078866;27;45296;-87
2023/03/10 11:22:23;;;;;;;;;2.00;0.00;;;;;10.78;97.78;99603.91;4994357;28;45526;-83
2023/03/10 11:25:18;;;;;;;;;0.00;0.00;;;;;11.04;98.60;99593.97;4994421;28;45463;-83
2023/03/10 11:27:56;;;;;;;;;3.25;1.00;;;;;11.23;94.42;99604.31;4994650;28;45583;-87
2023/03/10 11:30:30;;;;;;;;;3.00;0.00;;;;;11.34;95.48;99625.47;4994941;28;45680;-91
2023/03/10 11:33:05;;;;;;;;;2.25;1.00;;;;;11.63;94.56;99662.28;4978707;28;45449;-83
2023/03/10 11:35:31;;;;;;;;;0.75;0.00;;;;;11.75;92.06;99640.78;4977599;28;46343;-86
2023/03/10 11:38:23;;;;;;;;;0.00;0.00;;;;;12.08;94.05;99608.69;4995405;28;45320;-85
2023/03/10 11:40:55;;;;;;;;;2.00;0.00;;;;;12.06;91.84;99612.31;4978599;28;45570;-84
2023/03/10 11:43:52;;;;;;;;;0.00;0.00;;;;;12.62;90.55;99636.28;4978736;28;45597;-86
2023/03/10 11:46:22;;;;;;;;;0.00;0.00;;;;;13.44;90.08;99643.00;4924407;28;48544;-86
2023/03/10 11:49:16;;;;;;;;;2.00;1.00;;;;;13.51;88.93;99660.84;4935894;28;45415;-88
2023/03/10 11:51:59;;;;;;;;;0.50;0.00;;;;;13.06;84.23;99708.72;4936046;28;45554;-85
2023/03/10 11:54:34;;;;;;;;;1.00;0.00;;;;;12.29;84.26;99677.13;4903878;28;45352;-87